Time;durP1;ratioP1;P1;durP2;ratioP2;P2;SDS_P1;SDS_P2;PMS_P1;PMS_P2;Temp;Humidity;BMP_temperature;BMP_pressure;BME280_temperature;BME280_humidity;BME280_pressure;Samples;Min_cycle;Max_cycle;Signal;HPM_P1;HPM_P2
2023/09/28 00:00:35;;;;;;;15.15;10.90;;;;;;;;;;5019949;28;20029;-95
2023/09/28 00:03:03;;;;;;;15.18;10.13;;;;;;;;;;5018481;28;20436;-96
2023/09/28 00:05:30;;;;;;;16.17;11.32;;;;;;;;;;5018000;28;20026;-94
2023/09/28 00:07:56;;;;;;;18.77;11.70;;;;;;;;;;5019755;28;20036;-95
2023/09/28 00:10:22;;;;;;;17.00;12.25;;;;;;;;;;5024013;28;20061;-96
2023/09/28 00:12:49;;;;;;;17.23;12.68;;;;;;;;;;5021926;28;20423;-96
2023/09/28 00:15:18;;;;;;;17.10;11.60;;;;;;;;;;5025402;28;20026;-95
2023/09/28 00:17:47;;;;;;;18.67;13.15;;;;;;;;;;5027528;28;20025;-95
2023/09/28 00:20:17;;;;;;;16.98;11.88;;;;;;;;;;5026067;28;20042;-95
2023/09/28 00:22:48;;;;;;;18.67;11.45;;;;;;;;;;5024882;28;20057;-96
2023/09/28 00:25:17;;;;;;;16.85;11.32;;;;;;;;;;5026172;28;20309;-96
2023/09/28 00:27:45;;;;;;;12.50;10.38;;;;;;;;;;5026361;28;20044;-96
2023/09/28 00:33:01;;;;;;;15.10;9.77;;;;;;;;;;5026385;28;20040;-95
2023/09/28 00:35:27;;;;;;;16.50;10.32;;;;;;;;;;5025526;28;20034;-96
2023/09/28 00:37:54;;;;;;;15.75;9.80;;;;;;;;;;5025377;28;20033;-96
2023/09/28 00:40:28;;;;;;;12.85;9.68;;;;;;;;;;5024324;28;20065;-95
2023/09/28 00:42:56;;;;;;;18.95;9.77;;;;;;;;;;5025454;28;20032;-95
2023/09/28 00:45:23;;;;;;;15.50;9.25;;;;;;;;;;5025096;28;20053;-96
2023/09/28 00:47:51;;;;;;;12.45;9.27;;;;;;;;;;5025700;28;20021;-96
2023/09/28 00:50:36;;;;;;;13.70;10.13;;;;;;;;;;5026349;28;20030;-95
2023/09/28 00:53:21;;;;;;;15.13;9.95;;;;;;;;;;5026163;28;20029;-95
2023/09/28 00:55:49;;;;;;;13.88;9.95;;;;;;;;;;5029198;28;20050;-96
2023/09/28 01:01:55;;;;;;;14.65;9.82;;;;;;;;;;5039613;28;20048;-96
2023/09/28 01:04:52;;;;;;;13.65;9.95;;;;;;;;;;5038253;28;20038;-96
2023/09/28 01:07:40;;;;;;;16.05;10.05;;;;;;;;;;5039356;28;20085;-96
2023/09/28 01:16:08;;;;;;;17.00;10.93;;;;;;;;;;5065192;28;20032;-95
2023/09/28 01:18:34;;;;;;;15.10;9.68;;;;;;;;;;5042258;28;20060;-95
2023/09/28 01:21:00;;;;;;;13.82;10.00;;;;;;;;;;5059976;28;20036;-96
2023/09/28 01:26:11;;;;;;;12.45;9.27;;;;;;;;;;5051921;28;20068;-96
2023/09/28 01:28:56;;;;;;;16.40;10.23;;;;;;;;;;5059839;28;20461;-96
2023/09/28 01:31:22;;;;;;;11.77;9.85;;;;;;;;;;5041938;28;20028;-95
2023/09/28 01:33:48;;;;;;;15.98;9.80;;;;;;;;;;5059551;28;20367;-95
2023/09/28 01:36:33;;;;;;;17.13;10.10;;;;;;;;;;5041439;28;20035;-94
2023/09/28 01:39:03;;;;;;;12.73;9.73;;;;;;;;;;5044726;28;20033;-94
2023/09/28 01:41:29;;;;;;;12.50;10.00;;;;;;;;;;5066190;28;20043;-94
2023/09/28 01:43:55;;;;;;;15.35;11.18;;;;;;;;;;5059463;28;20033;-94
2023/09/28 01:46:21;;;;;;;16.40;11.25;;;;;;;;;;5038875;28;20043;-95
2023/09/28 01:48:47;;;;;;;15.57;10.52;;;;;;;;;;5041916;28;20021;-94
2023/09/28 01:51:13;;;;;;;13.38;10.25;;;;;;;;;;5058884;28;20029;-93
2023/09/28 01:53:39;;;;;;;19.25;12.15;;;;;;;;;;5059086;28;20044;-95
2023/09/28 01:56:05;;;;;;;20.10;12.18;;;;;;;;;;5058170;28;20036;-95
2023/09/28 01:58:50;;;;;;;17.98;11.65;;;;;;;;;;5041509;28;20483;-95
2023/09/28 02:01:22;;;;;;;19.67;12.32;;;;;;;;;;5059415;28;20107;-96
2023/09/28 02:03:50;;;;;;;18.15;12.40;;;;;;;;;;5035512;28;20420;-95
2023/09/28 02:06:16;;;;;;;23.58;12.43;;;;;;;;;;5022985;28;20026;-95
2023/09/28 02:08:43;;;;;;;20.90;12.98;;;;;;;;;;5023665;28;20017;-95
2023/09/28 02:11:11;;;;;;;22.30;12.85;;;;;;;;;;5023357;28;20034;-96
2023/09/28 02:13:37;;;;;;;22.83;12.45;;;;;;;;;;5041651;28;20025;-96
2023/09/28 02:16:03;;;;;;;16.25;11.65;;;;;;;;;;5041034;28;20021;-95
2023/09/28 02:18:48;;;;;;;16.63;13.15;;;;;;;;;;5024981;28;20021;-96
2023/09/28 02:21:33;;;;;;;18.38;12.40;;;;;;;;;;5025387;28;20025;-96
2023/09/28 02:23:59;;;;;;;17.73;12.45;;;;;;;;;;5011530;28;20478;-96
2023/09/28 02:26:26;;;;;;;21.95;12.63;;;;;;;;;;5004994;28;20025;-95
2023/09/28 02:31:55;;;;;;;17.75;12.63;;;;;;;;;;5023016;28;20032;-95
2023/09/28 02:37:07;;;;;;;18.45;13.32;;;;;;;;;;5022993;28;20040;-95
2023/09/28 02:39:36;;;;;;;21.52;12.95;;;;;;;;;;5006125;28;20032;-95
2023/09/28 02:42:07;;;;;;;22.20;12.70;;;;;;;;;;5003702;28;20041;-95
2023/09/28 02:44:45;;;;;;;23.85;13.57;;;;;;;;;;5004089;28;20068;-95
2023/09/28 02:47:11;;;;;;;22.23;12.35;;;;;;;;;;5023042;28;20030;-95
2023/09/28 02:49:38;;;;;;;16.92;12.90;;;;;;;;;;5004917;28;20029;-95
2023/09/28 02:52:06;;;;;;;22.83;13.45;;;;;;;;;;5021980;28;20026;-96
2023/09/28 02:54:33;;;;;;;15.50;12.38;;;;;;;;;;5021893;28;20022;-94
2023/09/28 02:56:59;;;;;;;16.63;12.45;;;;;;;;;;5017706;28;20025;-95
2023/09/28 02:59:26;;;;;;;19.05;13.20;;;;;;;;;;5024010;28;20049;-95
2023/09/28 03:01:53;;;;;;;20.73;12.80;;;;;;;;;;5022795;28;20033;-95
2023/09/28 03:04:37;;;;;;;19.60;13.88;;;;;;;;;;5038990;28;20128;-95
2023/09/28 03:09:48;;;;;;;21.98;13.77;;;;;;;;;;5019764;28;20052;-95
2023/09/28 03:12:15;;;;;;;20.35;12.60;;;;;;;;;;4998702;28;20046;-95
2023/09/28 03:14:41;;;;;;;19.27;13.60;;;;;;;;;;5000018;28;20332;-94
2023/09/28 03:17:08;;;;;;;19.45;13.90;;;;;;;;;;5009104;28;20026;-96
2023/09/28 03:22:38;;;;;;;21.00;13.93;;;;;;;;;;4989931;28;20456;-96
2023/09/28 03:25:10;;;;;;;18.35;12.63;;;;;;;;;;4954243;29;20020;-96
2023/09/28 03:33:43;;;;;;;22.42;13.75;;;;;;;;;;4982776;28;20037;-96
2023/09/28 03:36:09;;;;;;;21.98;15.10;;;;;;;;;;4964659;28;20041;-94
2023/09/28 03:38:35;;;;;;;21.40;13.27;;;;;;;;;;4976898;28;20155;-91
2023/09/28 03:41:01;;;;;;;18.75;13.52;;;;;;;;;;4961158;28;20038;-92
2023/09/28 03:43:27;;;;;;;20.42;13.70;;;;;;;;;;4976801;28;20034;-91
2023/09/28 03:48:38;;;;;;;19.17;13.38;;;;;;;;;;4977460;28;20093;-92
2023/09/28 03:51:04;;;;;;;23.98;13.52;;;;;;;;;;4960669;28;20055;-91
2023/09/28 03:53:32;;;;;;;16.45;12.77;;;;;;;;;;4980608;28;20065;-91
2023/09/28 03:55:58;;;;;;;23.08;15.27;;;;;;;;;;4998074;28;20415;-91
2023/09/28 03:58:24;;;;;;;21.02;13.55;;;;;;;;;;4997152;28;20063;-91
2023/09/28 04:00:50;;;;;;;28.02;14.38;;;;;;;;;;4997707;28;20309;-91
2023/09/28 04:03:16;;;;;;;23.48;14.20;;;;;;;;;;4996879;28;20023;-89
2023/09/28 04:05:43;;;;;;;19.65;14.45;;;;;;;;;;5011478;28;20111;-91
2023/09/28 04:08:09;;;;;;;16.48;14.13;;;;;;;;;;5016623;28;20028;-93
2023/09/28 04:10:35;;;;;;;21.30;14.32;;;;;;;;;;5017355;28;20037;-95
2023/09/28 04:19:21;;;;;;;24.38;16.27;;;;;;;;;;5020935;28;20149;-93
2023/09/28 04:21:47;;;;;;;26.65;19.00;;;;;;;;;;5020072;28;20068;-94
2023/09/28 04:24:14;;;;;;;25.95;18.40;;;;;;;;;;5020887;28;20033;-94
2023/09/28 04:26:40;;;;;;;22.02;14.98;;;;;;;;;;5021015;28;20061;-94
2023/09/28 04:29:07;;;;;;;18.95;16.15;;;;;;;;;;5021234;28;20018;-94
2023/09/28 04:31:33;;;;;;;22.83;15.55;;;;;;;;;;5014018;28;20021;-92
2023/09/28 04:33:59;;;;;;;21.52;14.38;;;;;;;;;;5019877;28;20026;-91
2023/09/28 04:36:25;;;;;;;21.98;14.95;;;;;;;;;;5019771;28;20048;-92
2023/09/28 04:39:10;;;;;;;19.23;15.05;;;;;;;;;;5019240;28;20042;-93
2023/09/28 04:41:37;;;;;;;24.42;20.83;;;;;;;;;;5009966;28;20429;-92
2023/09/28 04:47:25;;;;;;;20.05;14.13;;;;;;;;;;5001094;28;20050;-91
2023/09/28 04:50:10;;;;;;;21.60;13.05;;;;;;;;;;5000344;28;20117;-92
2023/09/28 04:52:36;;;;;;;18.75;14.07;;;;;;;;;;5017886;28;20064;-91
2023/09/28 04:55:03;;;;;;;21.13;14.25;;;;;;;;;;5020776;28;20034;-92
2023/09/28 04:57:31;;;;;;;18.83;14.38;;;;;;;;;;5020899;28;20033;-92
2023/09/28 05:11:47;;;;;;;16.77;13.07;;;;;;;;;;5095277;27;20398;-93
2023/09/28 05:14:13;;;;;;;20.10;13.02;;;;;;;;;;5094366;28;20024;-93
2023/09/28 05:20:03;;;;;;;21.58;12.07;;;;;;;;;;5095148;28;20448;-93
2023/09/28 05:22:29;;;;;;;22.65;11.82;;;;;;;;;;5094757;28;20036;-92
2023/09/28 05:24:55;;;;;;;16.92;11.52;;;;;;;;;;5095179;28;20021;-92
2023/09/28 05:27:21;;;;;;;17.65;11.68;;;;;;;;;;5095163;28;20020;-93
2023/09/28 05:30:20;;;;;;;19.90;11.50;;;;;;;;;;5095068;28;20039;-92
2023/09/28 05:35:31;;;;;;;25.13;11.93;;;;;;;;;;5095071;28;20055;-93
2023/09/28 05:37:57;;;;;;;16.80;10.82;;;;;;;;;;5094934;28;20043;-93
2023/09/28 05:40:23;;;;;;;14.93;11.00;;;;;;;;;;5094577;28;20032;-93
2023/09/28 05:42:49;;;;;;;21.02;10.57;;;;;;;;;;5093703;28;20013;-93
2023/09/28 05:45:15;;;;;;;13.82;10.38;;;;;;;;;;5093576;28;20062;-93
2023/09/28 05:47:41;;;;;;;20.88;10.88;;;;;;;;;;5093468;28;20124;-92
2023/09/28 05:50:08;;;;;;;19.25;10.55;;;;;;;;;;5094168;28;20035;-92
2023/09/28 05:52:34;;;;;;;14.63;10.57;;;;;;;;;;5093269;28;20151;-95
2023/09/28 05:55:00;;;;;;;14.07;10.90;;;;;;;;;;5094425;28;20032;-93
2023/09/28 05:57:26;;;;;;;14.68;11.23;;;;;;;;;;5094315;28;20028;-95
2023/09/28 05:59:52;;;;;;;15.88;9.90;;;;;;;;;;5094250;28;20066;-96
2023/09/28 06:02:19;;;;;;;19.20;10.15;;;;;;;;;;5093344;28;20028;-95
2023/09/28 06:04:45;;;;;;;13.40;9.93;;;;;;;;;;5093283;28;20042;-96
2023/09/28 06:07:14;;;;;;;17.75;10.40;;;;;;;;;;5093164;28;20111;-95
2023/09/28 06:09:41;;;;;;;19.50;10.32;;;;;;;;;;5082332;28;20346;-93
2023/09/28 06:12:07;;;;;;;15.77;10.50;;;;;;;;;;5063093;28;20024;-95
2023/09/28 06:14:36;;;;;;;12.77;10.00;;;;;;;;;;5060740;28;20021;-93
2023/09/28 06:20:07;;;;;;;15.07;9.40;;;;;;;;;;5060380;28;20051;-93
2023/09/28 06:22:33;;;;;;;16.70;10.23;;;;;;;;;;5059289;28;20395;-93
2023/09/28 06:24:59;;;;;;;17.98;10.73;;;;;;;;;;5060296;28;20025;-94
2023/09/28 06:27:44;;;;;;;15.35;9.88;;;;;;;;;;5059317;28;20036;-93
2023/09/28 06:33:27;;;;;;;13.40;10.27;;;;;;;;;;5060499;28;20106;-94
2023/09/28 06:35:54;;;;;;;19.15;10.05;;;;;;;;;;5060163;28;20033;-94
2023/09/28 06:38:20;;;;;;;17.33;10.52;;;;;;;;;;5059767;28;20033;-91
2023/09/28 06:40:50;;;;;;;16.67;9.68;;;;;;;;;;5058825;28;20037;-92
2023/09/28 06:43:16;;;;;;;15.48;10.00;;;;;;;;;;5072887;28;20032;-91
2023/09/28 06:45:43;;;;;;;13.70;9.98;;;;;;;;;;5079338;28;20021;-91
2023/09/28 06:48:09;;;;;;;12.45;9.43;;;;;;;;;;5065608;28;20056;-90
2023/09/28 06:50:39;;;;;;;11.27;9.55;;;;;;;;;;5064163;28;20111;-91
2023/09/28 06:53:06;;;;;;;20.42;10.00;;;;;;;;;;5078451;28;20029;-91
2023/09/28 06:55:32;;;;;;;18.48;9.55;;;;;;;;;;5078671;28;20039;-92
2023/09/28 07:00:42;;;;;;;16.73;9.70;;;;;;;;;;5059647;28;20392;-93
2023/09/28 07:03:09;;;;;;;16.73;9.27;;;;;;;;;;5059648;28;20036;-92
2023/09/28 07:05:35;;;;;;;18.40;8.95;;;;;;;;;;5059534;28;20027;-91
2023/09/28 07:08:05;;;;;;;18.40;9.35;;;;;;;;;;5062450;28;20024;-92
2023/09/28 07:13:36;;;;;;;13.70;8.43;;;;;;;;;;5069353;28;20082;-90
2023/09/28 07:16:03;;;;;;;16.73;8.32;;;;;;;;;;5078546;28;20065;-90
2023/09/28 07:18:29;;;;;;;15.27;8.75;;;;;;;;;;5061913;28;20029;-80
2023/09/28 07:20:55;;;;;;;13.38;8.63;;;;;;;;;;5064936;28;20450;-79
2023/09/28 07:23:41;;;;;;;16.40;8.32;;;;;;;;;;5057401;28;20112;-80
2023/09/28 07:26:16;;;;;;;12.05;7.93;;;;;;;;;;5060194;28;20424;-80
2023/09/28 07:28:42;;;;;;;14.00;8.38;;;;;;;;;;5058316;28;20036;-80
2023/09/28 07:31:08;;;;;;;13.80;8.30;;;;;;;;;;5057474;28;20060;-79
2023/09/28 07:33:35;;;;;;;16.02;8.18;;;;;;;;;;5061779;28;20028;-80
2023/09/28 07:36:05;;;;;;;11.88;7.70;;;;;;;;;;5057304;28;20017;-80
2023/09/28 07:38:32;;;;;;;14.82;8.07;;;;;;;;;;5057522;28;20029;-80
2023/09/28 07:40:58;;;;;;;18.70;8.15;;;;;;;;;;5059435;28;20045;-79
2023/09/28 07:46:09;;;;;;;13.73;8.07;;;;;;;;;;5069976;28;20036;-80
2023/09/28 07:48:36;;;;;;;12.88;8.13;;;;;;;;;;5064078;28;20112;-80
2023/09/28 07:51:21;;;;;;;12.30;8.15;;;;;;;;;;5077123;28;20326;-81
2023/09/28 07:53:47;;;;;;;12.68;7.68;;;;;;;;;;5064664;28;20040;-80
2023/09/28 07:56:13;;;;;;;15.52;8.60;;;;;;;;;;5076556;28;20081;-80
2023/09/28 07:58:39;;;;;;;15.40;7.85;;;;;;;;;;5067421;28;20159;-80
2023/09/28 08:01:05;;;;;;;14.52;8.00;;;;;;;;;;5068573;28;20068;-80
2023/09/28 08:03:31;;;;;;;19.17;7.85;;;;;;;;;;5073019;28;20052;-80
2023/09/28 08:05:59;;;;;;;9.98;7.40;;;;;;;;;;5069495;28;20106;-80
2023/09/28 08:08:25;;;;;;;13.75;7.63;;;;;;;;;;5056770;28;20131;-79
2023/09/28 08:10:51;;;;;;;16.88;7.35;;;;;;;;;;5067586;28;20438;-79
2023/09/28 08:13:36;;;;;;;14.18;6.78;;;;;;;;;;5062555;28;20037;-80
2023/09/28 08:16:04;;;;;;;12.48;7.35;;;;;;;;;;5061982;28;20024;-80
2023/09/28 08:18:30;;;;;;;13.88;7.05;;;;;;;;;;5073359;28;20045;-80
2023/09/28 08:21:15;;;;;;;12.38;7.05;;;;;;;;;;5056313;28;20036;-80
2023/09/28 08:23:41;;;;;;;15.25;7.20;;;;;;;;;;5071487;28;20025;-79
2023/09/28 08:26:07;;;;;;;15.43;6.93;;;;;;;;;;5064790;28;20107;-79
2023/09/28 08:28:52;;;;;;;16.30;6.55;;;;;;;;;;5076450;28;20028;-79
2023/09/28 08:31:19;;;;;;;11.35;6.50;;;;;;;;;;5061193;28;20104;-93
2023/09/28 08:33:48;;;;;;;11.38;6.70;;;;;;;;;;5061979;28;20053;-95
2023/09/28 08:39:19;;;;;;;10.25;6.60;;;;;;;;;;5078144;28;20030;-94
2023/09/28 08:42:04;;;;;;;10.65;6.88;;;;;;;;;;5084184;28;20028;-96
2023/09/28 08:44:37;;;;;;;21.52;6.45;;;;;;;;;;5090524;28;20013;-96
2023/09/28 08:47:08;;;;;;;16.48;6.75;;;;;;;;;;5084064;28;20345;-96
2023/09/28 08:49:39;;;;;;;13.40;6.20;;;;;;;;;;5069663;28;20043;-96
2023/09/28 08:52:10;;;;;;;10.70;6.63;;;;;;;;;;5071262;28;20032;-96
2023/09/28 08:57:22;;;;;;;16.50;6.10;;;;;;;;;;5068747;28;20012;-96
2023/09/28 08:59:49;;;;;;;13.75;6.38;;;;;;;;;;5066045;28;20029;-93
2023/09/28 09:02:16;;;;;;;17.65;5.80;;;;;;;;;;5056785;28;20021;-92
2023/09/28 09:04:42;;;;;;;8.82;5.38;;;;;;;;;;5056831;28;20048;-91
2023/09/28 09:07:28;;;;;;;15.10;5.45;;;;;;;;;;5070828;28;20317;-91
2023/09/28 09:09:56;;;;;;;11.15;5.80;;;;;;;;;;5060489;28;20054;-91
2023/09/28 09:12:22;;;;;;;11.48;5.50;;;;;;;;;;5071949;28;20414;-90
2023/09/28 09:15:07;;;;;;;11.50;5.90;;;;;;;;;;5057827;28;20071;-91
2023/09/28 09:20:37;;;;;;;10.10;6.25;;;;;;;;;;5073184;28;20070;-90
2023/09/28 09:25:57;;;;;;;12.82;6.22;;;;;;;;;;5058814;28;20079;-90
2023/09/28 09:28:32;;;;;;;10.02;5.47;;;;;;;;;;5057490;28;20033;-90
2023/09/28 09:34:04;;;;;;;21.38;8.55;;;;;;;;;;5077398;28;20074;-90
2023/09/28 09:39:33;;;;;;;8.45;7.13;;;;;;;;;;5006412;23;20411;-96
2023/09/28 09:41:59;;;;;;;12.75;6.05;;;;;;;;;;5007872;28;20050;-96
2023/09/28 09:44:26;;;;;;;8.52;5.40;;;;;;;;;;5004972;28;20019;-96
2023/09/28 09:46:53;;;;;;;13.65;5.55;;;;;;;;;;4987799;28;20022;-96
2023/09/28 09:49:49;;;;;;;10.75;5.80;;;;;;;;;;5004257;23;20086;-91
2023/09/28 09:52:16;;;;;;;8.88;5.20;;;;;;;;;;5034696;23;20059;-96
2023/09/28 09:54:43;;;;;;;10.88;5.47;;;;;;;;;;5028504;28;20450;-94
2023/09/28 09:57:11;;;;;;;15.13;5.38;;;;;;;;;;5005711;28;20034;-94
2023/09/28 09:59:42;;;;;;;10.30;5.38;;;;;;;;;;5013310;28;20439;-94
2023/09/28 10:02:13;;;;;;;13.25;5.88;;;;;;;;;;5018802;28;20073;-95
2023/09/28 10:04:39;;;;;;;10.40;4.97;;;;;;;;;;5002514;28;20033;-95
2023/09/28 10:07:26;;;;;;;8.77;4.90;;;;;;;;;;5021828;28;20320;-95
2023/09/28 10:09:54;;;;;;;9.75;4.75;;;;;;;;;;5020691;28;20018;-94
2023/09/28 10:12:22;;;;;;;8.50;4.63;;;;;;;;;;5020892;28;20026;-95
2023/09/28 10:15:07;;;;;;;8.95;5.07;;;;;;;;;;5006169;28;20029;-96
2023/09/28 10:17:33;;;;;;;13.00;4.70;;;;;;;;;;5026131;28;20026;-95
2023/09/28 10:20:00;;;;;;;9.85;4.60;;;;;;;;;;5013520;28;20033;-95
2023/09/28 10:22:26;;;;;;;9.95;4.65;;;;;;;;;;5008951;28;20359;-95
2023/09/28 10:24:56;;;;;;;9.63;5.13;;;;;;;;;;5143110;23;20054;-96
2023/09/28 10:27:23;;;;;;;8.57;5.10;;;;;;;;;;5104092;23;20065;-96
2023/09/28 10:29:49;;;;;;;11.38;4.28;;;;;;;;;;5027319;28;20026;-95
2023/09/28 10:32:31;;;;;;;8.13;4.90;;;;;;;;;;5031177;28;20297;-95
2023/09/28 10:43:45;;;;;;;7.03;4.50;;;;;;;;;;5781924;23;20050;-95
2023/09/28 10:46:11;;;;;;;12.07;5.13;;;;;;;;;;5000131;28;20072;-87
2023/09/28 10:48:44;;;;;;;8.30;5.18;;;;;;;;;;5000393;28;20034;-92
2023/09/28 10:51:11;;;;;;;11.63;5.22;;;;;;;;;;4984192;28;20037;-88
2023/09/28 10:53:38;;;;;;;7.35;4.80;;;;;;;;;;4983306;28;20019;-85
2023/09/28 10:56:10;;;;;;;11.95;5.05;;;;;;;;;;5000460;28;20030;-88
2023/09/28 10:58:36;;;;;;;10.25;4.47;;;;;;;;;;4982810;28;20062;-87
2023/09/28 11:01:06;;;;;;;15.55;5.05;;;;;;;;;;4999931;28;20041;-87
2023/09/28 11:03:33;;;;;;;9.02;4.80;;;;;;;;;;4997140;28;20106;-86
2023/09/28 11:06:01;;;;;;;12.65;4.80;;;;;;;;;;4982769;28;20051;-87
2023/09/28 11:08:46;;;;;;;9.90;5.05;;;;;;;;;;4999905;28;20455;-86
2023/09/28 11:11:12;;;;;;;9.25;4.85;;;;;;;;;;4982557;28;20038;-86
2023/09/28 11:14:00;;;;;;;13.50;4.28;;;;;;;;;;4999973;28;20030;-86
2023/09/28 11:19:12;;;;;;;9.15;4.30;;;;;;;;;;4999883;28;20470;-87
2023/09/28 11:21:57;;;;;;;6.78;3.80;;;;;;;;;;4982467;28;20034;-87
2023/09/28 11:24:23;;;;;;;18.60;4.75;;;;;;;;;;4982696;28;20029;-86
2023/09/28 11:26:50;;;;;;;8.40;3.97;;;;;;;;;;4982286;28;20030;-86
2023/09/28 11:29:17;;;;;;;8.65;4.40;;;;;;;;;;4982484;28;20118;-86
2023/09/28 11:32:02;;;;;;;6.75;4.18;;;;;;;;;;4982091;28;20030;-86
2023/09/28 11:34:35;;;;;;;6.15;3.53;;;;;;;;;;4982201;28;20293;-86
2023/09/28 11:45:17;;;;;;;6.85;3.85;;;;;;;;;;4999342;28;20056;-87
2023/09/28 11:47:46;;;;;;;9.60;3.88;;;;;;;;;;4982064;28;20042;-86
2023/09/28 11:50:12;;;;;;;7.22;3.72;;;;;;;;;;4982050;28;20066;-87
2023/09/28 11:55:23;;;;;;;7.50;4.30;;;;;;;;;;4999527;28;20340;-85
2023/09/28 11:57:49;;;;;;;6.47;3.97;;;;;;;;;;4981717;28;20085;-86
2023/09/28 12:03:01;;;;;;;16.23;4.50;;;;;;;;;;4999153;28;20056;-87
2023/09/28 12:05:47;;;;;;;8.15;4.45;;;;;;;;;;4981869;28;20018;-86
2023/09/28 12:08:13;;;;;;;10.32;3.95;;;;;;;;;;4981682;28;20022;-86
2023/09/28 12:13:26;;;;;;;9.93;4.00;;;;;;;;;;4999197;28;20053;-87
2023/09/28 12:15:52;;;;;;;8.40;3.92;;;;;;;;;;4981626;28;20030;-87
2023/09/28 12:18:18;;;;;;;8.75;4.00;;;;;;;;;;4981635;28;20112;-86
2023/09/28 12:20:44;;;;;;;11.27;4.38;;;;;;;;;;4981417;28;20034;-87
2023/09/28 12:23:10;;;;;;;10.13;3.95;;;;;;;;;;4981547;28;20030;-87
2023/09/28 12:25:37;;;;;;;8.07;4.18;;;;;;;;;;4975759;28;20027;-86
2023/09/28 12:28:03;;;;;;;7.97;3.88;;;;;;;;;;4962129;28;20023;-86
2023/09/28 12:30:30;;;;;;;9.38;3.72;;;;;;;;;;4957993;28;20033;-86
2023/09/28 12:33:14;;;;;;;8.20;3.88;;;;;;;;;;4963367;28;20043;-85
2023/09/28 12:35:42;;;;;;;7.53;3.80;;;;;;;;;;4968566;28;20025;-90
2023/09/28 12:43:56;;;;;;;24.88;5.78;;;;;;;;;;4971244;28;20479;-84
2023/09/28 12:46:22;;;;;;;32.80;6.88;;;;;;;;;;4974515;28;20049;-84
2023/09/28 12:48:49;;;;;;;110.35;10.60;;;;;;;;;;4953718;29;20034;-85
2023/09/28 12:51:16;;;;;;;32.13;6.20;;;;;;;;;;4965110;28;20467;-85
2023/09/28 12:59:50;;;;;;;12.52;4.65;;;;;;;;;;4961153;28;20085;-85
2023/09/28 13:02:16;;;;;;;9.13;4.43;;;;;;;;;;4942799;29;20034;-85
2023/09/28 13:04:42;;;;;;;7.03;4.40;;;;;;;;;;4973415;28;20423;-85
2023/09/28 13:07:09;;;;;;;12.73;4.85;;;;;;;;;;4978873;28;20468;-84
2023/09/28 13:09:35;;;;;;;7.90;4.25;;;;;;;;;;4978856;28;20059;-83
2023/09/28 13:12:03;;;;;;;8.00;4.28;;;;;;;;;;4978525;28;20030;-86
2023/09/28 13:14:30;;;;;;;9.63;4.50;;;;;;;;;;4949700;28;20126;-86
2023/09/28 13:17:02;;;;;;;8.52;4.38;;;;;;;;;;4959695;28;20037;-85
2023/09/28 13:19:28;;;;;;;7.75;4.72;;;;;;;;;;4965615;28;20431;-89
2023/09/28 13:21:59;;;;;;;7.40;4.20;;;;;;;;;;4982595;28;20117;-88
2023/09/28 13:24:26;;;;;;;9.65;4.70;;;;;;;;;;5002132;28;20030;-87
2023/09/28 13:27:00;;;;;;;8.68;4.60;;;;;;;;;;4965388;28;20034;-87
2023/09/28 13:29:27;;;;;;;13.80;4.50;;;;;;;;;;4963287;29;20069;-86
2023/09/28 13:31:54;;;;;;;13.23;4.43;;;;;;;;;;4946024;29;20029;-86
2023/09/28 13:34:20;;;;;;;13.18;5.68;;;;;;;;;;4962902;29;20015;-86
2023/09/28 13:36:46;;;;;;;8.35;4.80;;;;;;;;;;4945975;29;20130;-89
2023/09/28 13:42:16;;;;;;;8.07;4.05;;;;;;;;;;4962966;28;20075;-84
2023/09/28 13:44:42;;;;;;;8.63;4.07;;;;;;;;;;4962373;29;20062;-83
2023/09/28 13:47:08;;;;;;;8.27;4.68;;;;;;;;;;4962570;29;20062;-85
2023/09/28 13:49:34;;;;;;;7.32;4.32;;;;;;;;;;4959989;28;20439;-84
2023/09/28 13:52:00;;;;;;;8.73;4.70;;;;;;;;;;4981899;28;20023;-84
2023/09/28 13:54:45;;;;;;;11.75;4.30;;;;;;;;;;4980596;28;20045;-82
2023/09/28 13:57:11;;;;;;;9.93;4.50;;;;;;;;;;4962119;28;20054;-81
2023/09/28 13:59:37;;;;;;;15.15;4.28;;;;;;;;;;4980840;28;20065;-81
2023/09/28 14:02:03;;;;;;;8.55;3.97;;;;;;;;;;4971507;28;20019;-81
2023/09/28 14:04:31;;;;;;;11.07;4.38;;;;;;;;;;4981020;28;20034;-81
2023/09/28 14:06:57;;;;;;;7.85;4.22;;;;;;;;;;4964084;28;20031;-81
2023/09/28 14:09:27;;;;;;;5.90;4.00;;;;;;;;;;4997647;28;20022;-80
2023/09/28 14:11:54;;;;;;;10.05;4.43;;;;;;;;;;5000422;28;20014;-81
2023/09/28 14:14:24;;;;;;;9.07;4.40;;;;;;;;;;4973006;28;20038;-82
2023/09/28 14:16:50;;;;;;;8.10;4.20;;;;;;;;;;5000508;28;20102;-82
2023/09/28 14:19:17;;;;;;;10.73;4.65;;;;;;;;;;4974105;28;20066;-80
2023/09/28 14:21:43;;;;;;;7.43;4.50;;;;;;;;;;4944360;29;20299;-80
2023/09/28 14:24:11;;;;;;;10.32;4.35;;;;;;;;;;4965706;28;20015;-81
2023/09/28 14:26:38;;;;;;;9.70;4.47;;;;;;;;;;4969110;28;20031;-90
2023/09/28 14:29:05;;;;;;;7.30;4.57;;;;;;;;;;4983491;28;20026;-88
2023/09/28 14:31:31;;;;;;;8.10;4.38;;;;;;;;;;5000427;28;20467;-90
2023/09/28 14:33:58;;;;;;;7.97;4.95;;;;;;;;;;4983184;28;20065;-89
2023/09/28 14:36:25;;;;;;;8.23;4.85;;;;;;;;;;5000958;28;20026;-88
2023/09/28 14:38:52;;;;;;;13.00;4.63;;;;;;;;;;4983365;28;20050;-87
2023/09/28 14:41:18;;;;;;;10.57;5.05;;;;;;;;;;5000442;28;20496;-89
2023/09/28 14:43:47;;;;;;;11.98;4.85;;;;;;;;;;4982826;28;20476;-90
2023/09/28 14:46:13;;;;;;;10.60;4.90;;;;;;;;;;5000571;28;20032;-90
2023/09/28 14:48:39;;;;;;;11.30;4.53;;;;;;;;;;4988726;28;20106;-88
2023/09/28 14:51:05;;;;;;;13.73;5.07;;;;;;;;;;4961562;29;20027;-88
2023/09/28 14:53:32;;;;;;;8.93;4.93;;;;;;;;;;4944535;29;20042;-89
2023/09/28 14:55:58;;;;;;;12.25;5.03;;;;;;;;;;4979512;28;20034;-88
2023/09/28 14:58:24;;;;;;;9.93;4.60;;;;;;;;;;5000451;28;20310;-88
2023/09/28 15:00:50;;;;;;;9.15;4.53;;;;;;;;;;4998835;28;20026;-88
2023/09/28 15:03:16;;;;;;;21.83;5.00;;;;;;;;;;4978576;28;20425;-91
2023/09/28 15:05:43;;;;;;;11.63;4.95;;;;;;;;;;4963886;28;20027;-87
2023/09/28 15:14:17;;;;;;;6.10;4.50;;;;;;;;;;4980944;28;20037;-88
2023/09/28 15:16:43;;;;;;;12.13;4.78;;;;;;;;;;4963501;28;20027;-89
2023/09/28 15:19:09;;;;;;;7.70;4.40;;;;;;;;;;4963463;28;20023;-88
2023/09/28 15:21:35;;;;;;;10.25;5.05;;;;;;;;;;4963267;28;20035;-88
2023/09/28 15:24:07;;;;;;;12.27;5.25;;;;;;;;;;4991292;28;20109;-88
2023/09/28 15:26:33;;;;;;;9.88;5.18;;;;;;;;;;4982506;28;20302;-88
2023/09/28 15:28:59;;;;;;;12.32;5.72;;;;;;;;;;4999551;28;20446;-89
2023/09/28 15:31:25;;;;;;;8.57;5.10;;;;;;;;;;4999595;28;20042;-90
2023/09/28 15:33:52;;;;;;;10.02;4.82;;;;;;;;;;4999481;28;20026;-88
2023/09/28 15:36:18;;;;;;;9.15;4.65;;;;;;;;;;4982478;28;20136;-88
2023/09/28 15:42:06;;;;;;;16.20;5.57;;;;;;;;;;4999585;28;20037;-89
2023/09/28 15:44:35;;;;;;;14.05;6.03;;;;;;;;;;4998146;28;20074;-89
2023/09/28 15:47:01;;;;;;;12.25;5.20;;;;;;;;;;4982180;28;20318;-85
2023/09/28 15:49:27;;;;;;;11.32;5.45;;;;;;;;;;4982142;28;20033;-88
2023/09/28 15:51:53;;;;;;;12.68;5.28;;;;;;;;;;4999277;28;20101;-89
2023/09/28 15:54:20;;;;;;;10.98;5.47;;;;;;;;;;4998816;28;20025;-88
2023/09/28 15:56:46;;;;;;;14.45;5.07;;;;;;;;;;4975277;28;20023;-88
2023/09/28 15:59:12;;;;;;;14.30;5.25;;;;;;;;;;4972875;28;20026;-89
2023/09/28 16:01:41;;;;;;;14.50;5.43;;;;;;;;;;4961384;28;20030;-80
2023/09/28 16:04:07;;;;;;;13.98;5.90;;;;;;;;;;4976007;28;20379;-80
2023/09/28 16:06:33;;;;;;;11.32;5.45;;;;;;;;;;4957962;28;20042;-80
2023/09/28 16:09:03;;;;;;;10.55;5.15;;;;;;;;;;4958454;28;20019;-80
2023/09/28 16:11:30;;;;;;;9.63;5.47;;;;;;;;;;4965437;28;20058;-81
2023/09/28 16:13:56;;;;;;;12.55;5.95;;;;;;;;;;4944525;28;20043;-83
2023/09/28 16:16:23;;;;;;;8.35;5.55;;;;;;;;;;4959285;29;20023;-80
2023/09/28 16:18:49;;;;;;;8.73;5.00;;;;;;;;;;4967348;28;20027;-80
2023/09/28 16:21:15;;;;;;;9.07;5.38;;;;;;;;;;4967585;28;20066;-80
2023/09/28 16:23:41;;;;;;;14.07;5.57;;;;;;;;;;4959310;28;20034;-80
2023/09/28 16:26:07;;;;;;;11.38;5.57;;;;;;;;;;4959237;29;20023;-80
2023/09/28 16:28:33;;;;;;;16.10;5.97;;;;;;;;;;4958990;28;20469;-80
2023/09/28 16:30:59;;;;;;;17.92;5.70;;;;;;;;;;4959141;29;20035;-80
2023/09/28 16:33:25;;;;;;;12.52;5.45;;;;;;;;;;4959108;29;20034;-80
2023/09/28 16:35:51;;;;;;;16.02;5.63;;;;;;;;;;4959296;28;20306;-80
2023/09/28 16:38:17;;;;;;;13.45;5.00;;;;;;;;;;4959022;29;20445;-80
2023/09/28 16:40:43;;;;;;;15.13;6.40;;;;;;;;;;4958723;28;20041;-80
2023/09/28 16:43:10;;;;;;;43.53;7.28;;;;;;;;;;4958971;29;20035;-81
2023/09/28 16:45:36;;;;;;;12.82;4.72;;;;;;;;;;4966511;28;20051;-80
2023/09/28 16:48:02;;;;;;;8.55;4.88;;;;;;;;;;4972025;28;20027;-80
2023/09/28 16:50:28;;;;;;;9.80;5.28;;;;;;;;;;4969066;28;20081;-80
2023/09/28 16:52:55;;;;;;;16.45;6.05;;;;;;;;;;4942448;29;20035;-80
2023/09/28 16:55:21;;;;;;;18.05;5.53;;;;;;;;;;4963247;28;20034;-81
2023/09/28 16:57:47;;;;;;;17.10;5.82;;;;;;;;;;4969076;28;20043;-79
2023/09/28 17:00:13;;;;;;;16.08;5.80;;;;;;;;;;4958196;28;20095;-80
2023/09/28 17:02:39;;;;;;;13.10;5.35;;;;;;;;;;4989603;28;20102;-81
2023/09/28 17:05:06;;;;;;;14.55;5.57;;;;;;;;;;4977477;28;20345;-80